Time;durP1;ratioP1;P1;durP2;ratioP2;P2;SDS_P1;SDS_P2;PMS_P1;PMS_P2;Temp;Humidity;BMP_temperature;BMP_pressure;BME280_temperature;BME280_humidity;BME280_pressure;Samples;Min_cycle;Max_cycle;Signal;HPM_P1;HPM_P2
2020/12/01 00:01:19;;;;;;;25.30;14.20;;;5.20;1.00;;;;;;5095429;28;20174;-67
2020/12/01 00:03:45;;;;;;;21.37;13.73;;;5.10;37.70;;;;;;5095710;28;20172;-67
2020/12/01 00:06:10;;;;;;;16.10;11.20;;;5.20;24.40;;;;;;5095447;28;20174;-66
2020/12/01 00:08:37;;;;;;;18.20;12.60;;;5.20;15.00;;;;;;5095565;28;20167;-66
2020/12/01 00:11:04;;;;;;;20.58;12.80;;;5.40;1.00;;;;;;5095517;28;20309;-67
2020/12/01 00:13:30;;;;;;;19.20;12.98;;;5.40;25.70;;;;;;5101184;28;20167;-67
2020/12/01 00:15:56;;;;;;;20.40;13.30;;;5.30;99.90;;;;;;5108923;28;20539;-67
2020/12/01 00:18:21;;;;;;;19.00;12.80;;;5.30;1.00;;;;;;5109108;28;20421;-67
2020/12/01 00:20:47;;;;;;;17.30;11.93;;;5.20;99.90;;;;;;5107280;28;20171;-66
2020/12/01 00:23:13;;;;;;;15.57;11.00;;;5.10;99.90;;;;;;5097061;28;20171;-67
2020/12/01 00:25:38;;;;;;;19.07;12.40;;;5.10;97.80;;;;;;5094599;28;20203;-66
2020/12/01 00:28:04;;;;;;;19.00;12.07;;;5.20;99.90;;;;;;5095097;28;20217;-67
2020/12/01 00:30:29;;;;;;;18.50;11.40;;;5.20;1.00;;;;;;5095002;28;20257;-67
2020/12/01 00:32:55;;;;;;;24.80;12.40;;;5.30;99.90;;;;;;5094950;28;20237;-67
2020/12/01 00:35:30;;;;;;;13.37;9.43;;;5.20;99.90;;;;;;5094861;28;20671;-67
2020/12/01 00:37:56;;;;;;;18.55;10.88;;;5.10;1.00;;;;;;5095178;28;20163;-67
2020/12/01 00:40:22;;;;;;;20.27;11.77;;;5.20;1.00;;;;;;5094770;28;20167;-67
2020/12/01 00:42:48;;;;;;;16.30;11.48;;;5.20;1.00;;;;;;5094615;28;20400;-67
2020/12/01 00:45:15;;;;;;;13.10;9.53;;;5.20;1.00;;;;;;5094722;28;20233;-66
2020/12/01 00:47:41;;;;;;;16.50;10.90;;;5.00;99.90;;;;;;5094818;28;20199;-67
2020/12/01 00:50:09;;;;;;;18.17;9.80;;;5.10;99.90;;;;;;5094435;28;20229;-66
2020/12/01 00:52:34;;;;;;;13.57;8.85;;;5.20;1.00;;;;;;5094463;28;20171;-67
2020/12/01 00:55:00;;;;;;;14.43;9.83;;;5.10;99.90;;;;;;5094629;28;20188;-67
2020/12/01 00:57:25;;;;;;;16.40;10.10;;;5.00;1.00;;;;;;5094418;28;20282;-67
2020/12/01 00:59:51;;;;;;;12.30;8.20;;;5.10;99.90;;;;;;5094400;28;20217;-67
2020/12/01 01:02:17;;;;;;;12.97;9.27;;;4.80;99.90;;;;;;5094535;28;20170;-66
2020/12/01 01:04:42;;;;;;;13.70;9.33;;;4.90;99.90;;;;;;5094229;28;20270;-67
2020/12/01 01:07:08;;;;;;;11.70;8.43;;;5.00;99.90;;;;;;5094420;28;20168;-67
2020/12/01 01:09:33;;;;;;;13.27;8.33;;;5.00;99.90;;;;;;5094358;28;20262;-67
2020/12/01 01:11:59;;;;;;;14.23;8.40;;;5.10;99.90;;;;;;5094000;28;20206;-67
2020/12/01 01:14:24;;;;;;;14.67;9.07;;;5.00;1.00;;;;;;5094064;28;20273;-67
2020/12/01 01:16:50;;;;;;;11.63;8.30;;;5.10;1.00;;;;;;5094342;28;20174;-67
2020/12/01 01:19:15;;;;;;;11.07;7.60;;;5.00;1.00;;;;;;5094060;28;20174;-66
2020/12/01 01:21:45;;;;;;;11.50;8.40;;;5.10;99.90;;;;;;5094517;28;20167;-67
2020/12/01 01:24:13;;;;;;;13.13;8.80;;;5.10;1.00;;;;;;5094167;28;20207;-67
2020/12/01 01:26:38;;;;;;;9.95;7.93;;;5.20;99.90;;;;;;5094133;28;20159;-67
2020/12/01 01:29:04;;;;;;;10.13;7.10;;;5.20;99.90;;;;;;5093887;28;20250;-66
2020/12/01 01:31:30;;;;;;;8.90;6.67;;;5.00;99.90;;;;;;5093740;28;20222;-65
2020/12/01 01:33:57;;;;;;;15.32;8.05;;;5.10;99.90;;;;;;5093792;28;20191;-66
2020/12/01 01:36:22;;;;;;;12.25;7.13;;;5.10;99.90;;;;;;5093133;28;20562;-68
2020/12/01 01:38:48;;;;;;;12.90;8.70;;;4.90;91.10;;;;;;5093949;28;20213;-65
2020/12/01 01:41:13;;;;;;;14.13;8.43;;;5.20;1.00;;;;;;5093681;28;20217;-65
2020/12/01 01:43:39;;;;;;;9.90;7.20;;;5.00;1.00;;;;;;5093536;28;20174;-65
2020/12/01 01:46:27;;;;;;;11.60;9.30;;;5.10;98.40;;;;;;5094040;28;20171;-65
2020/12/01 01:48:53;;;;;;;11.57;7.93;;;5.20;1.00;;;;;;5093510;28;20167;-66
2020/12/01 01:51:19;;;;;;;9.77;6.90;;;5.00;1.00;;;;;;5093358;28;20202;-65
2020/12/01 01:53:51;;;;;;;11.65;7.95;;;4.90;1.00;;;;;;5093617;28;20623;-65
2020/12/01 01:56:25;;;;;;;9.52;7.03;;;5.00;99.90;;;;;;5093326;28;20190;-66
2020/12/01 01:58:52;;;;;;;10.02;6.65;;;5.00;1.00;;;;;;5093384;28;20308;-64
2020/12/01 02:01:21;;;;;;;11.80;8.15;;;5.10;29.40;;;;;;5091991;28;20536;-66
2020/12/01 02:03:53;;;;;;;11.38;7.15;;;5.10;99.90;;;;;;5093179;28;20682;-66
2020/12/01 02:06:39;;;;;;;9.40;7.35;;;5.20;99.90;;;;;;5093411;28;20644;-66
2020/12/01 02:09:11;;;;;;;11.55;7.50;;;5.10;82.40;;;;;;5093418;28;20160;-65
2020/12/01 02:11:40;;;;;;;9.52;6.65;;;5.10;99.90;;;;;;5093098;28;20437;-66
2020/12/01 02:14:15;;;;;;;9.05;6.80;;;5.30;1.00;;;;;;5093315;28;20273;-66
2020/12/01 02:16:51;;;;;;;11.15;6.88;;;5.30;1.00;;;;;;5093284;28;20153;-64
2020/12/01 02:19:21;;;;;;;8.10;6.47;;;5.30;1.00;;;;;;5093362;28;20155;-66
2020/12/01 02:21:47;;;;;;;9.93;6.90;;;5.20;1.00;;;;;;5093060;28;20171;-66
2020/12/01 02:24:19;;;;;;;8.87;6.67;;;5.30;1.00;;;;;;5092777;28;20213;-65
2020/12/01 02:26:48;;;;;;;9.30;6.57;;;5.20;99.90;;;;;;5093284;28;20393;-66
2020/12/01 02:29:17;;;;;;;10.85;6.90;;;5.20;99.90;;;;;;5093267;28;20182;-66
2020/12/01 02:31:43;;;;;;;9.70;6.43;;;5.40;99.90;;;;;;5092978;28;20203;-66
2020/12/01 02:34:11;;;;;;;10.67;7.10;;;5.40;1.00;;;;;;5093082;28;20266;-66
2020/12/01 02:36:37;;;;;;;10.02;6.97;;;5.30;1.00;;;;;;5093194;28;20171;-66
2020/12/01 02:39:04;;;;;;;11.30;7.60;;;5.20;99.90;;;;;;5093172;28;20167;-66
2020/12/01 02:41:30;;;;;;;8.05;6.03;;;5.40;99.90;;;;;;5092847;28;20396;-66
2020/12/01 02:43:55;;;;;;;9.90;6.60;;;5.30;1.00;;;;;;5092833;28;20643;-66
2020/12/01 02:46:21;;;;;;;9.73;7.10;;;5.20;1.00;;;;;;5093077;28;20172;-66
2020/12/01 02:48:47;;;;;;;9.90;7.30;;;5.40;1.00;;;;;;5096912;28;20216;-67
2020/12/01 02:51:12;;;;;;;9.60;6.83;;;5.50;1.00;;;;;;5096903;28;20183;-66
2020/12/01 02:53:38;;;;;;;8.67;6.50;;;5.40;99.90;;;;;;5096776;28;20178;-66
2020/12/01 02:56:03;;;;;;;10.77;6.43;;;5.50;1.00;;;;;;5097034;28;20171;-66
2020/12/01 02:58:29;;;;;;;8.63;6.37;;;5.40;99.90;;;;;;5096843;28;20220;-66
2020/12/01 03:00:54;;;;;;;8.20;6.73;;;5.50;1.00;;;;;;5096927;28;20175;-66
2020/12/01 03:03:20;;;;;;;7.93;5.90;;;5.30;1.00;;;;;;5096755;28;20531;-66
2020/12/01 03:05:45;;;;;;;9.47;6.23;;;5.30;1.00;;;;;;5096503;28;20187;-66
2020/12/01 03:08:11;;;;;;;11.03;6.60;;;5.20;99.90;;;;;;5096578;28;20505;-66
2020/12/01 03:10:36;;;;;;;8.50;6.83;;;5.40;39.00;;;;;;5096420;28;20202;-66
2020/12/01 03:13:02;;;;;;;8.67;5.80;;;5.30;93.40;;;;;;5096454;28;20596;-66
2020/12/01 03:15:28;;;;;;;9.67;6.57;;;5.30;99.90;;;;;;5096870;28;20187;-66
2020/12/01 03:17:54;;;;;;;8.32;6.68;;;5.40;99.90;;;;;;5096257;28;20171;-66
2020/12/01 03:20:19;;;;;;;9.83;6.63;;;5.30;14.70;;;;;;5096550;28;20179;-66
2020/12/01 03:22:45;;;;;;;9.63;6.00;;;5.40;99.90;;;;;;5096255;28;20179;-67
2020/12/01 03:25:11;;;;;;;8.87;6.77;;;5.40;99.90;;;;;;5096345;28;20215;-66
2020/12/01 03:27:36;;;;;;;8.80;6.50;;;5.50;99.90;;;;;;5097315;28;20182;-66
2020/12/01 03:30:05;;;;;;;9.20;6.57;;;5.80;99.90;;;;;;5096669;28;20277;-66
2020/12/01 03:32:30;;;;;;;11.15;6.65;;;5.90;1.00;;;;;;5096309;28;20171;-66
2020/12/01 03:34:56;;;;;;;6.93;5.53;;;6.00;99.90;;;;;;5096112;28;20244;-66
2020/12/01 03:37:22;;;;;;;10.43;6.50;;;5.80;1.00;;;;;;5096330;28;20251;-66
2020/12/01 03:39:47;;;;;;;10.40;6.93;;;5.60;99.90;;;;;;5096170;28;20168;-66
2020/12/01 03:42:13;;;;;;;11.13;6.50;;;5.60;1.00;;;;;;5095836;28;20224;-66
2020/12/01 03:44:38;;;;;;;9.23;6.20;;;5.70;99.90;;;;;;5096008;28;20184;-65
2020/12/01 03:47:04;;;;;;;7.07;6.07;;;5.80;99.90;;;;;;5096107;28;20217;-66
2020/12/01 03:49:29;;;;;;;11.20;7.37;;;5.90;91.40;;;;;;5096074;28;20215;-66
2020/12/01 03:51:55;;;;;;;8.63;6.40;;;5.80;1.00;;;;;;5095568;28;20187;-67
2020/12/01 03:54:21;;;;;;;12.63;6.50;;;5.60;92.70;;;;;;5095557;28;20194;-66
2020/12/01 03:56:46;;;;;;;9.27;5.93;;;5.90;1.00;;;;;;5095890;28;20651;-66
2020/12/01 03:59:12;;;;;;;9.40;6.47;;;5.80;1.00;;;;;;5095110;28;20183;-66
2020/12/01 04:01:37;;;;;;;14.00;7.07;;;5.80;1.00;;;;;;5095535;28;20179;-66
2020/12/01 04:04:03;;;;;;;9.90;7.13;;;5.80;99.90;;;;;;5095484;28;20194;-66
2020/12/01 04:06:28;;;;;;;11.40;7.00;;;5.60;99.90;;;;;;5095659;28;20171;-66
2020/12/01 04:08:54;;;;;;;14.50;8.27;;;5.70;99.90;;;;;;5095274;28;20221;-66
2020/12/01 04:11:19;;;;;;;8.07;6.60;;;5.80;99.90;;;;;;5095277;28;20555;-66
2020/12/01 04:13:45;;;;;;;8.77;6.90;;;5.70;99.90;;;;;;5095182;28;20170;-66
2020/12/01 04:16:12;;;;;;;9.37;7.10;;;5.70;99.90;;;;;;5095459;28;20167;-66
2020/12/01 04:18:38;;;;;;;10.77;6.60;;;5.90;99.90;;;;;;5095091;28;20159;-66
2020/12/01 04:21:03;;;;;;;10.90;7.23;;;5.90;99.90;;;;;;5095159;28;20168;-66
2020/12/01 04:23:29;;;;;;;11.93;7.63;;;5.90;97.50;;;;;;5094959;28;20528;-67
2020/12/01 04:25:55;;;;;;;11.17;6.40;;;5.80;51.60;;;;;;5118428;22;20227;-72
2020/12/01 04:28:20;;;;;;;10.77;7.30;;;5.80;99.90;;;;;;5094206;28;20159;-72
2020/12/01 04:30:46;;;;;;;10.50;7.37;;;5.90;99.90;;;;;;5094080;28;20204;-72
2020/12/01 04:33:12;;;;;;;8.87;6.47;;;5.90;54.50;;;;;;5095528;28;20175;-71
2020/12/01 04:35:38;;;;;;;9.17;6.70;;;5.80;99.90;;;;;;5095174;28;20400;-71
2020/12/01 04:38:06;;;;;;;9.53;7.40;;;5.80;99.90;;;;;;5095110;28;20709;-70
2020/12/01 04:40:36;;;;;;;10.32;7.28;;;5.90;99.90;;;;;;5094936;28;20166;-70
2020/12/01 04:43:30;;;;;;;8.73;6.90;;;5.90;99.90;;;;;;5094920;28;20179;-71
2020/12/01 04:45:56;;;;;;;11.23;7.80;;;6.00;99.90;;;;;;5090731;28;20207;-70
2020/12/01 04:48:46;;;;;;;9.50;6.93;;;5.80;99.90;;;;;;5095039;28;20178;-71
2020/12/01 04:51:42;;;;;;;9.00;6.57;;;5.80;28.50;;;;;;5093347;28;20201;-71
2020/12/01 04:54:55;;;;;;;9.70;7.50;;;5.50;99.90;;;;;;5094865;28;20235;-71
2020/12/01 04:57:56;;;;;;;11.30;7.13;;;5.70;99.90;;;;;;5062988;28;20215;-70
2020/12/01 05:00:43;;;;;;;9.95;7.70;;;5.70;99.90;;;;;;5087158;28;20559;-72
2020/12/01 05:03:35;;;;;;;10.32;7.07;;;6.10;99.90;;;;;;5094871;28;20171;-71
2020/12/01 05:07:15;;;;;;;13.40;7.47;;;6.10;1.00;;;;;;5094261;28;20240;-71
2020/12/01 05:09:20;;;;;;;14.20;8.30;;;6.10;99.90;;;;;;5083521;28;20183;-71
2020/12/01 05:11:58;;;;;;;11.68;8.15;;;5.60;1.00;;;;;;5093462;28;20190;-71
2020/12/01 05:14:33;;;;;;;9.93;7.50;;;5.50;1.00;;;;;;5094530;28;20186;-71
2020/12/01 05:17:32;;;;;;;10.52;7.57;;;5.70;1.00;;;;;;5094529;28;20296;-71
2020/12/01 05:19:57;;;;;;;11.73;7.63;;;5.70;1.00;;;;;;5094259;28;20152;-71
2020/12/01 05:22:23;;;;;;;10.87;8.67;;;5.70;1.00;;;;;;5094403;28;20259;-71
2020/12/01 05:24:51;;;;;;;10.70;8.40;;;5.70;99.90;;;;;;5093943;28;20203;-71
2020/12/01 05:27:30;;;;;;;12.02;8.75;;;5.90;1.00;;;;;;5094457;28;20431;-71
2020/12/01 05:30:11;;;;;;;12.98;7.95;;;5.80;1.00;;;;;;5094096;28;20159;-71
2020/12/01 05:32:42;;;;;;;10.55;8.10;;;6.00;95.80;;;;;;5092905;28;20152;-71
2020/12/01 05:35:16;;;;;;;11.13;8.07;;;5.80;1.00;;;;;;5093680;28;20548;-71
2020/12/01 05:37:56;;;;;;;12.02;8.52;;;5.70;1.00;;;;;;5093987;28;20148;-71
2020/12/01 05:40:22;;;;;;;12.80;8.88;;;5.50;99.90;;;;;;5094020;28;20171;-71
2020/12/01 05:42:48;;;;;;;15.07;8.00;;;5.70;1.00;;;;;;5092501;28;20176;-71
2020/12/01 05:45:36;;;;;;;11.40;8.45;;;5.50;99.90;;;;;;5093816;28;20671;-71
2020/12/01 05:48:34;;;;;;;13.70;10.75;;;5.70;99.90;;;;;;5093562;28;20525;-71
2020/12/01 05:51:11;;;;;;;11.65;9.10;;;5.60;1.00;;;;;;5093935;28;20591;-71
2020/12/01 05:53:37;;;;;;;16.40;10.63;;;5.50;86.10;;;;;;5093767;28;20171;-71
2020/12/01 05:56:16;;;;;;;10.47;7.80;;;5.50;1.00;;;;;;5093459;28;20186;-70
2020/12/01 05:58:46;;;;;;;13.10;8.52;;;5.40;99.90;;;;;;5093688;28;20632;-72
2020/12/01 06:01:12;;;;;;;12.90;9.60;;;5.40;1.00;;;;;;5093582;28;20564;-68
2020/12/01 06:04:24;;;;;;;15.73;9.45;;;5.40;99.90;;;;;;5093812;28;20183;-68
2020/12/01 06:07:25;;;;;;;13.57;10.15;;;5.60;99.90;;;;;;5092108;28;20183;-68
2020/12/01 06:10:10;;;;;;;15.80;9.90;;;5.70;41.50;;;;;;5061060;28;20235;-67
2020/12/01 06:12:55;;;;;;;13.80;9.82;;;5.70;1.00;;;;;;5093426;28;20144;-68
2020/12/01 06:15:21;;;;;;;13.82;9.88;;;5.70;1.00;;;;;;5093319;28;20686;-67
2020/12/01 06:18:05;;;;;;;13.57;10.52;;;5.50;1.00;;;;;;5093391;28;20175;-67
2020/12/01 06:20:38;;;;;;;16.67;10.05;;;5.70;1.00;;;;;;5093589;28;20649;-68
2020/12/01 06:23:41;;;;;;;11.93;8.77;;;5.60;99.90;;;;;;5092018;28;20176;-68
2020/12/01 06:26:40;;;;;;;15.60;9.80;;;5.60;1.00;;;;;;5093714;28;20206;-67
2020/12/01 06:29:30;;;;;;;15.65;10.27;;;5.80;1.00;;;;;;5092094;28;20167;-67
2020/12/01 06:32:14;;;;;;;13.75;8.75;;;5.80;1.00;;;;;;5093802;28;20273;-67
2020/12/01 06:35:17;;;;;;;14.38;9.90;;;5.90;99.90;;;;;;5093446;28;20183;-69
2020/12/01 06:38:10;;;;;;;14.10;9.10;;;5.70;71.10;;;;;;5093458;28;20242;-67
2020/12/01 06:40:49;;;;;;;14.00;9.10;;;6.00;99.90;;;;;;5093094;28;20152;-68
2020/12/01 06:43:30;;;;;;;12.70;9.32;;;5.70;99.90;;;;;;5093162;28;20186;-67
2020/12/01 06:45:58;;;;;;;12.15;9.13;;;5.90;1.00;;;;;;5093172;28;20548;-67
2020/12/01 06:48:40;;;;;;;13.25;9.52;;;5.80;1.00;;;;;;5093109;28;20229;-67
2020/12/01 06:51:10;;;;;;;12.80;8.88;;;6.00;1.00;;;;;;5093103;28;20603;-67
2020/12/01 06:53:38;;;;;;;12.95;8.57;;;5.90;1.00;;;;;;5093529;28;20202;-65
2020/12/01 06:56:07;;;;;;;12.45;8.90;;;5.70;99.90;;;;;;5093692;28;20195;-68
2020/12/01 06:58:46;;;;;;;14.38;9.60;;;5.50;99.90;;;;;;5093237;28;20263;-67
2020/12/01 07:01:24;;;;;;;16.95;10.43;;;5.60;1.00;;;;;;5093039;28;20177;-67
2020/12/01 07:04:07;;;;;;;11.13;9.20;;;5.70;99.90;;;;;;5093026;28;20163;-67
2020/12/01 07:06:42;;;;;;;13.75;8.77;;;5.90;99.90;;;;;;5093757;28;20163;-68
2020/12/01 07:09:24;;;;;;;12.50;8.68;;;5.70;1.00;;;;;;5093090;28;20254;-68
2020/12/01 07:12:15;;;;;;;13.88;9.75;;;5.70;99.90;;;;;;5094961;28;20722;-67
2020/12/01 07:14:44;;;;;;;13.38;9.20;;;5.50;1.00;;;;;;5093562;28;20183;-68
2020/12/01 07:17:19;;;;;;;12.40;9.15;;;5.70;1.00;;;;;;5093111;28;20174;-67
2020/12/01 07:19:55;;;;;;;15.85;9.55;;;5.60;99.90;;;;;;5093289;28;20163;-67
2020/12/01 07:22:27;;;;;;;16.75;9.00;;;5.50;1.00;;;;;;5093119;28;20171;-68
2020/12/01 07:25:01;;;;;;;15.60;10.43;;;5.50;99.90;;;;;;5093124;28;20203;-68
2020/12/01 07:27:46;;;;;;;12.32;9.60;;;5.60;99.90;;;;;;5108488;28;20171;-68
2020/12/01 07:30:24;;;;;;;13.77;10.60;;;5.70;1.00;;;;;;5092787;28;20179;-68
2020/12/01 07:32:59;;;;;;;14.23;9.10;;;5.50;1.00;;;;;;5093653;28;20187;-68
2020/12/01 07:36:24;;;;;;;12.02;9.43;;;5.70;86.20;;;;;;5095807;28;20187;-67
2020/12/01 07:39:01;;;;;;;14.57;9.55;;;5.60;1.00;;;;;;5054578;28;20226;-68
2020/12/01 07:41:27;;;;;;;17.05;10.63;;;5.60;99.90;;;;;;5096589;28;20170;-68
2020/12/01 07:43:56;;;;;;;12.20;9.02;;;5.60;99.90;;;;;;5096890;28;20178;-67
2020/12/01 07:46:22;;;;;;;20.17;10.45;;;5.70;99.90;;;;;;5096728;28;20202;-67
2020/12/01 07:48:57;;;;;;;21.03;11.27;;;5.80;1.00;;;;;;5112500;28;20175;-67
2020/12/01 07:51:22;;;;;;;13.40;9.63;;;6.00;99.90;;;;;;5096524;28;20662;-67
2020/12/01 07:53:49;;;;;;;16.97;10.27;;;6.00;1.00;;;;;;5096135;28;20175;-67
2020/12/01 07:56:16;;;;;;;13.27;9.73;;;6.00;99.90;;;;;;5095773;28;20188;-66
2020/12/01 07:59:00;;;;;;;20.75;11.38;;;6.20;99.90;;;;;;5095885;28;20164;-68
2020/12/01 08:01:26;;;;;;;19.70;11.30;;;6.20;96.40;;;;;;5096281;28;20164;-66
2020/12/01 08:04:02;;;;;;;19.90;11.83;;;6.00;99.90;;;;;;5095731;28;20175;-67
2020/12/01 08:06:28;;;;;;;21.50;12.85;;;6.20;26.40;;;;;;5095920;28;20159;-68
2020/12/01 08:08:53;;;;;;;19.83;12.33;;;6.20;99.90;;;;;;5096474;28;20167;-67
2020/12/01 08:11:21;;;;;;;23.60;11.27;;;6.20;1.00;;;;;;5096486;28;20188;-67
2020/12/01 08:13:51;;;;;;;23.85;11.10;;;6.00;99.90;;;;;;5097070;28;20155;-69
2020/12/01 08:16:20;;;;;;;19.27;12.00;;;6.00;99.90;;;;;;5111233;28;20197;-66
2020/12/01 08:18:47;;;;;;;18.63;12.30;;;6.00;99.90;;;;;;5095967;28;20160;-68
2020/12/01 08:21:17;;;;;;;19.42;12.32;;;6.20;1.00;;;;;;5095776;28;20654;-67
2020/12/01 08:23:45;;;;;;;20.00;13.63;;;6.30;1.00;;;;;;5095889;28;20167;-67
2020/12/01 08:26:26;;;;;;;20.20;10.82;;;6.20;1.00;;;;;;5095496;28;20203;-68
2020/12/01 08:29:03;;;;;;;25.50;13.50;;;6.10;1.00;;;;;;5111723;28;20720;-69
2020/12/01 08:31:40;;;;;;;29.17;13.07;;;6.20;1.00;;;;;;5097333;28;20610;-68
2020/12/01 08:34:32;;;;;;;24.50;11.88;;;6.20;1.00;;;;;;5095565;28;20155;-67
2020/12/01 08:37:19;;;;;;;18.95;12.00;;;6.30;99.90;;;;;;5095804;28;20194;-67
2020/12/01 08:40:09;;;;;;;23.60;11.65;;;6.30;1.00;;;;;;5111031;28;20164;-69
2020/12/01 08:42:52;;;;;;;26.45;13.68;;;6.50;81.20;;;;;;5095395;28;20175;-68
2020/12/01 08:46:04;;;;;;;31.67;12.70;;;6.40;1.00;;;;;;5095003;28;20192;-68
2020/12/01 08:48:53;;;;;;;23.13;13.13;;;6.40;1.00;;;;;;5052687;28;20179;-68
2020/12/01 08:51:25;;;;;;;29.52;12.55;;;6.40;99.90;;;;;;5052766;28;20697;-66
2020/12/01 08:54:18;;;;;;;38.13;14.60;;;6.40;1.00;;;;;;5083616;28;20406;-66
2020/12/01 08:56:46;;;;;;;26.65;12.77;;;6.30;1.00;;;;;;5095398;28;20520;-67
2020/12/01 08:59:18;;;;;;;33.15;14.30;;;6.30;40.50;;;;;;5111251;28;20275;-68
2020/12/01 09:01:44;;;;;;;25.52;13.00;;;6.30;1.00;;;;;;5095194;28;20510;-68
2020/12/01 09:04:23;;;;;;;38.10;15.82;;;6.70;99.90;;;;;;5094867;28;20540;-66
2020/12/01 09:06:51;;;;;;;39.85;15.40;;;6.70;99.90;;;;;;5095016;28;20730;-67
2020/12/01 09:09:23;;;;;;;41.35;15.85;;;7.20;99.90;;;;;;5110413;28;20183;-67
2020/12/01 09:12:10;;;;;;;46.47;18.60;;;6.90;99.90;;;;;;5094676;28;20183;-66
2020/12/01 09:17:54;;;;;;;36.63;15.40;;;6.80;1.00;;;;;;5094920;28;20174;-68
2020/12/01 09:20:48;;;;;;;41.33;14.70;;;6.80;1.00;;;;;;5095076;28;20148;-68
2020/12/01 09:23:37;;;;;;;37.90;15.02;;;6.70;1.00;;;;;;5095203;28;20223;-67
2020/12/01 09:26:17;;;;;;;34.80;17.13;;;6.40;99.90;;;;;;5095019;28;20196;-67
2020/12/01 09:28:51;;;;;;;41.55;16.15;;;6.60;99.90;;;;;;5094477;28;20190;-67
2020/12/01 09:31:19;;;;;;;39.30;18.00;;;6.90;99.90;;;;;;5094414;28;20186;-67
2020/12/01 09:33:44;;;;;;;29.10;17.13;;;6.90;99.90;;;;;;5094817;28;20624;-67
2020/12/01 09:36:18;;;;;;;29.70;16.53;;;6.70;99.90;;;;;;5094004;28;20222;-67
2020/12/01 09:38:44;;;;;;;43.20;18.13;;;6.80;99.90;;;;;;5109809;28;20543;-67
2020/12/01 09:41:15;;;;;;;39.07;17.67;;;6.80;1.00;;;;;;5094026;28;20174;-67
2020/12/01 09:44:07;;;;;;;43.90;19.77;;;6.80;1.00;;;;;;5094155;28;20536;-67
2020/12/01 09:46:37;;;;;;;46.17;17.80;;;7.10;1.00;;;;;;5093257;28;20175;-68
2020/12/01 09:49:03;;;;;;;37.88;17.13;;;7.30;99.90;;;;;;5092669;28;20236;-67
2020/12/01 09:51:30;;;;;;;41.27;17.27;;;7.30;1.00;;;;;;5093826;28;20658;-67
2020/12/01 10:12:40;;;;;;;46.03;19.67;;;6.90;99.90;;;;;;5094449;28;20164;-67
2020/12/01 10:32:17;;;;;;;48.75;17.70;;;6.90;99.90;;;;;;5050458;28;20196;-69
2020/12/01 10:34:51;;;;;;;60.42;31.98;;;7.20;99.90;;;;;;5083049;28;20179;-69
2020/12/01 10:37:17;;;;;;;48.63;21.30;;;7.30;99.90;;;;;;5092768;28;20206;-68
2020/12/01 10:39:42;;;;;;;43.70;20.03;;;7.50;99.90;;;;;;5092304;28;20199;-69
2020/12/01 10:42:09;;;;;;;39.00;17.80;;;7.70;99.90;;;;;;5092567;28;20583;-68
2020/12/01 10:44:35;;;;;;;41.97;18.75;;;7.40;99.90;;;;;;5093094;28;20164;-69
2020/12/01 10:47:01;;;;;;;45.97;19.60;;;7.50;99.90;;;;;;5092464;28;20167;-69
2020/12/01 10:49:27;;;;;;;43.67;21.67;;;7.60;99.90;;;;;;5092827;28;20440;-69
2020/12/01 10:51:52;;;;;;;52.47;19.80;;;7.80;99.90;;;;;;5092636;28;20187;-69
2020/12/01 10:54:18;;;;;;;51.67;23.57;;;7.70;99.90;;;;;;5092721;28;20454;-69
2020/12/01 10:56:48;;;;;;;37.50;18.58;;;7.80;1.00;;;;;;5092543;28;20227;-69
2020/12/01 10:59:15;;;;;;;41.85;18.27;;;8.00;1.00;;;;;;5092655;28;20246;-70
2020/12/01 11:01:41;;;;;;;40.17;18.20;;;8.10;1.00;;;;;;5092654;28;20660;-69
2020/12/01 11:04:07;;;;;;;39.80;18.60;;;8.00;1.00;;;;;;5092697;28;20207;-69
2020/12/01 11:06:32;;;;;;;40.43;17.50;;;8.00;1.00;;;;;;5107763;28;20560;-69
2020/12/01 11:08:58;;;;;;;32.70;16.87;;;7.90;1.00;;;;;;5094868;28;20175;-69
2020/12/01 11:11:24;;;;;;;47.77;16.70;;;7.80;1.00;;;;;;5096522;28;20282;-69
2020/12/01 11:13:49;;;;;;;50.57;18.43;;;7.80;1.00;;;;;;5096148;28;20533;-69
2020/12/01 11:16:15;;;;;;;42.60;18.80;;;7.80;99.90;;;;;;5096091;28;20465;-69
2020/12/01 11:18:41;;;;;;;36.67;17.17;;;7.80;15.90;;;;;;5096138;28;20229;-69
2020/12/01 11:21:07;;;;;;;35.78;16.83;;;7.90;99.90;;;;;;5095944;28;20225;-69
2020/12/01 11:23:32;;;;;;;36.87;15.97;;;8.00;1.00;;;;;;5096055;28;20308;-69
2020/12/01 11:25:58;;;;;;;31.50;16.73;;;8.00;99.90;;;;;;5095726;28;20214;-69
2020/12/01 11:28:23;;;;;;;36.30;16.67;;;7.90;1.00;;;;;;5096109;28;20174;-69
2020/12/01 11:30:49;;;;;;;26.23;14.23;;;8.00;1.00;;;;;;5095757;28;20278;-69
2020/12/01 11:33:15;;;;;;;33.17;14.63;;;7.80;99.90;;;;;;5095520;28;20204;-69
2020/12/01 11:35:41;;;;;;;33.63;17.37;;;7.90;1.00;;;;;;5095371;28;20199;-70
2020/12/01 11:38:07;;;;;;;27.48;15.02;;;8.00;99.90;;;;;;5095642;28;20175;-70
2020/12/01 11:40:32;;;;;;;28.20;13.27;;;8.00;99.90;;;;;;5095718;28;20178;-70
2020/12/01 11:42:58;;;;;;;32.90;15.13;;;8.00;65.00;;;;;;5095597;28;20258;-70
2020/12/01 11:45:23;;;;;;;23.10;14.17;;;8.10;66.30;;;;;;5095618;28;20189;-70
2020/12/01 11:47:49;;;;;;;24.47;14.00;;;8.10;99.90;;;;;;5095704;28;20667;-69
2020/12/01 11:50:15;;;;;;;22.87;12.83;;;8.10;99.90;;;;;;5095547;28;20175;-70
2020/12/01 11:52:40;;;;;;;24.67;14.63;;;8.20;99.90;;;;;;5095572;28;20275;-70
2020/12/01 11:55:07;;;;;;;24.50;12.80;;;8.00;1.00;;;;;;5095574;28;20396;-70
2020/12/01 11:57:32;;;;;;;22.83;12.50;;;8.10;6.20;;;;;;5095173;28;20164;-69
2020/12/01 11:59:58;;;;;;;18.43;12.03;;;8.10;1.00;;;;;;5094833;28;20254;-70
2020/12/01 12:02:24;;;;;;;20.53;12.70;;;8.10;99.90;;;;;;5095168;28;20405;-70
2020/12/01 12:04:50;;;;;;;22.80;13.00;;;8.00;99.90;;;;;;5095270;28;20432;-70
2020/12/01 12:07:15;;;;;;;34.87;18.63;;;8.10;1.00;;;;;;5095104;28;20244;-70
2020/12/01 12:09:41;;;;;;;21.10;11.43;;;8.20;1.00;;;;;;5095199;28;20203;-70
2020/12/01 12:12:07;;;;;;;21.97;12.53;;;8.20;1.00;;;;;;5095571;28;20493;-70
2020/12/01 12:14:32;;;;;;;36.53;18.43;;;8.30;99.90;;;;;;5094795;28;20729;-70
2020/12/01 12:16:58;;;;;;;38.03;17.60;;;8.20;99.90;;;;;;5095056;28;20428;-70
2020/12/01 12:19:23;;;;;;;30.77;15.47;;;8.10;99.90;;;;;;5094162;28;20218;-70
2020/12/01 12:21:49;;;;;;;22.00;13.30;;;8.00;1.00;;;;;;5094423;28;20177;-70
2020/12/01 12:24:14;;;;;;;17.60;12.37;;;8.10;99.90;;;;;;5094207;28;20243;-69
2020/12/01 12:26:40;;;;;;;18.83;11.97;;;8.30;99.90;;;;;;5109746;28;20339;-69
2020/12/01 12:29:06;;;;;;;24.07;13.40;;;8.20;1.00;;;;;;5094527;28;20167;-70
2020/12/01 12:31:31;;;;;;;21.00;11.63;;;8.00;99.90;;;;;;5094552;28;20191;-70
2020/12/01 12:33:57;;;;;;;17.53;11.27;;;8.00;1.00;;;;;;5094330;28;20406;-69
2020/12/01 12:36:23;;;;;;;24.77;12.30;;;7.90;65.50;;;;;;5094196;28;20525;-70
2020/12/01 12:38:49;;;;;;;15.60;10.93;;;7.80;99.90;;;;;;5094365;28;20179;-70
2020/12/01 12:41:15;;;;;;;20.63;11.60;;;7.90;99.90;;;;;;5095168;28;20198;-69
2020/12/01 12:43:41;;;;;;;18.03;12.57;;;8.10;99.90;;;;;;5094842;28;20172;-69
2020/12/01 12:46:06;;;;;;;16.97;10.93;;;8.20;1.00;;;;;;5094277;28;20192;-70
2020/12/01 12:48:32;;;;;;;17.17;11.07;;;8.30;73.80;;;;;;5094318;28;20255;-70
2020/12/01 12:50:58;;;;;;;15.67;9.70;;;8.20;1.00;;;;;;5094065;28;20241;-70
2020/12/01 12:53:23;;;;;;;17.60;10.10;;;8.20;99.90;;;;;;5094212;28;20516;-70
2020/12/01 12:55:49;;;;;;;15.30;9.87;;;8.30;99.90;;;;;;5105587;28;20168;-69
2020/12/01 12:58:15;;;;;;;16.92;10.85;;;8.30;75.40;;;;;;5099645;28;20203;-70
2020/12/01 13:00:41;;;;;;;13.40;10.13;;;8.40;1.00;;;;;;5098753;28;20187;-70
2020/12/01 13:03:06;;;;;;;11.90;8.97;;;8.40;51.70;;;;;;5094752;28;20193;-70
2020/12/01 13:05:32;;;;;;;14.80;10.17;;;8.50;1.00;;;;;;5093940;28;20687;-70
2020/12/01 13:07:58;;;;;;;16.47;10.10;;;8.40;99.90;;;;;;5094312;28;20171;-70
2020/12/01 13:10:24;;;;;;;12.15;8.75;;;8.50;1.00;;;;;;5093610;28;20195;-69
2020/12/01 13:12:50;;;;;;;13.73;8.80;;;8.30;10.60;;;;;;5094008;28;20200;-69
2020/12/01 13:15:16;;;;;;;16.50;9.90;;;8.20;1.00;;;;;;5094024;28;20504;-69
2020/12/01 13:17:44;;;;;;;15.02;8.98;;;8.10;1.00;;;;;;5093992;28;20180;-70
2020/12/01 13:20:16;;;;;;;12.73;8.80;;;8.00;1.00;;;;;;5093698;28;20654;-69
2020/12/01 13:22:42;;;;;;;11.48;7.95;;;8.20;1.00;;;;;;5093897;28;20176;-69
2020/12/01 13:25:07;;;;;;;10.70;7.37;;;8.10;1.00;;;;;;5092499;28;20253;-69
2020/12/01 13:27:33;;;;;;;11.00;7.30;;;8.20;99.90;;;;;;5094072;28;20194;-69
2020/12/01 13:29:59;;;;;;;12.80;7.63;;;8.10;1.00;;;;;;5093680;28;20164;-69
2020/12/01 13:32:24;;;;;;;11.53;8.47;;;8.00;1.00;;;;;;5092452;28;20211;-69
2020/12/01 13:34:51;;;;;;;11.43;8.37;;;8.00;99.90;;;;;;5093447;28;20183;-69
2020/12/01 13:37:17;;;;;;;8.40;7.17;;;8.00;1.00;;;;;;5092149;28;20545;-69
2020/12/01 13:39:43;;;;;;;6.37;5.77;;;8.10;1.00;;;;;;5093276;28;20808;-70
2020/12/01 13:42:08;;;;;;;9.43;7.30;;;8.10;99.90;;;;;;5093625;28;20487;-69
2020/12/01 13:44:34;;;;;;;11.60;8.00;;;8.10;99.90;;;;;;5093129;28;20168;-69
2020/12/01 13:46:59;;;;;;;14.63;8.80;;;8.10;1.00;;;;;;5094145;28;20515;-69